createdAt,value
2022-10-19T00:00:45.507Z,1.04
2022-10-19T00:01:45.712Z,1.04
2022-10-19T00:02:45.817Z,1.04
2022-10-19T00:03:45.980Z,1.04
2022-10-19T00:04:46.071Z,1.04
2022-10-19T00:05:46.216Z,1.04
2022-10-19T00:06:46.369Z,1.04
2022-10-19T00:07:46.473Z,1.04
2022-10-19T00:08:46.619Z,1.04
2022-10-19T00:09:46.779Z,1.04
2022-10-19T00:10:46.864Z,1.04
2022-10-19T00:11:47.034Z,1.04
2022-10-19T00:13:47.985Z,1.04
2022-10-19T00:14:47.962Z,1.04
2022-10-19T00:15:47.585Z,1.04
2022-10-19T00:16:47.734Z,1.04
2022-10-19T00:17:47.834Z,1.04
2022-10-19T00:18:47.989Z,1.04
2022-10-19T00:19:48.150Z,1.04
2022-10-19T00:20:48.304Z,1.04
2022-10-19T00:21:48.450Z,1.04
2022-10-19T00:22:48.599Z,1.04
2022-10-19T00:23:48.747Z,1.04
2022-10-19T00:24:48.843Z,1.04
2022-10-19T00:25:49.631Z,1.04
2022-10-19T00:26:49.174Z,1.04
2022-10-19T00:27:49.250Z,1.04
2022-10-19T00:28:49.447Z,1.04
2022-10-19T00:29:49.549Z,1.04
2022-10-19T00:31:50.303Z,1.04
2022-10-19T00:32:50.016Z,1.04
2022-10-19T00:33:50.122Z,1.04
2022-10-19T00:34:50.270Z,1.04
2022-10-19T00:35:50.423Z,1.04
2022-10-19T00:36:50.530Z,1.04
2022-10-19T00:37:50.637Z,1.04
2022-10-19T00:38:50.783Z,1.04
2022-10-19T00:40:51.990Z,1.04
2022-10-19T00:41:51.122Z,1.04
2022-10-19T00:42:51.275Z,1.04
2022-10-19T00:43:51.409Z,1.04
2022-10-19T00:44:52.063Z,1.04
2022-10-19T00:45:51.633Z,1.04
2022-10-19T00:46:51.735Z,1.04
2022-10-19T00:47:51.881Z,1.04
2022-10-19T00:48:52.004Z,1.04
2022-10-19T00:49:52.139Z,1.04
2022-10-19T00:50:52.293Z,1.04
2022-10-19T00:51:52.461Z,1.04
2022-10-19T00:52:52.592Z,1.04
2022-10-19T00:53:52.753Z,1.04
2022-10-19T00:54:52.908Z,1.04
2022-10-19T00:55:53.012Z,1.04
2022-10-19T00:56:53.153Z,1.04
2022-10-19T00:57:53.398Z,1.04
2022-10-19T00:58:54.016Z,1.04
2022-10-19T00:59:53.937Z,1.04
2022-10-19T01:00:54.152Z,1.04
2022-10-19T01:01:53.869Z,1.04
2022-10-19T01:02:54.018Z,1.04
2022-10-19T01:03:54.123Z,1.04
2022-10-19T01:04:54.275Z,1.04
2022-10-19T01:05:54.373Z,1.04
2022-10-19T01:06:54.535Z,1.04
2022-10-19T01:07:54.679Z,1.04
2022-10-19T01:08:54.793Z,1.04
2022-10-19T01:09:54.930Z,1.04
2022-10-19T01:10:55.081Z,1.04
2022-10-19T01:11:55.232Z,1.04
2022-10-19T01:12:55.390Z,1.04
2022-10-19T01:13:55.546Z,1.04
2022-10-19T01:14:56.222Z,1.04
2022-10-19T01:15:55.799Z,1.04
2022-10-19T01:16:55.899Z,1.04
2022-10-19T01:17:56.045Z,1.04
2022-10-19T01:18:56.130Z,1.04
2022-10-19T01:19:56.250Z,1.04
2022-10-19T01:20:56.388Z,1.04
2022-10-19T01:21:56.478Z,1.04
2022-10-19T01:22:56.658Z,1.04
2022-10-19T01:23:56.787Z,1.04
2022-10-19T01:24:56.882Z,1.04
2022-10-19T01:25:57.056Z,1.04
2022-10-19T01:26:57.196Z,1.04
2022-10-19T01:27:57.358Z,1.04
2022-10-19T01:28:57.555Z,1.04
2022-10-19T01:29:58.226Z,1.04
2022-10-19T01:30:57.705Z,1.04
2022-10-19T01:31:57.906Z,1.04
2022-10-19T01:32:58.017Z,1.04
2022-10-19T01:34:58.887Z,1.04
2022-10-19T01:35:58.405Z,1.04
2022-10-19T01:36:58.531Z,1.04
2022-10-19T01:37:58.627Z,1.04
2022-10-19T01:38:58.831Z,1.04
2022-10-19T01:39:58.916Z,1.04
2022-10-19T01:40:59.607Z,1.04
2022-10-19T01:41:59.187Z,1.04
2022-10-19T01:42:59.347Z,1.04
2022-10-19T01:43:59.454Z,1.04
2022-10-19T01:45:00.216Z,1.04
2022-10-19T01:45:59.673Z,1.04
2022-10-19T01:47:00.473Z,1.04
2022-10-19T01:47:59.990Z,1.04
2022-10-19T01:49:00.159Z,1.04
2022-10-19T01:50:00.337Z,1.04
2022-10-19T01:51:00.409Z,1.04
2022-10-19T01:52:00.579Z,1.04
2022-10-19T01:53:00.711Z,1.04
2022-10-19T01:54:00.859Z,1.04
2022-10-19T01:55:01.007Z,1.04
2022-10-19T01:56:01.160Z,1.04
2022-10-19T01:57:01.265Z,1.04
2022-10-19T01:58:01.412Z,1.04
2022-10-19T01:59:01.564Z,1.04
2022-10-19T02:00:02.289Z,1.04
2022-10-19T02:01:01.981Z,1.04
2022-10-19T02:02:01.967Z,1.04
2022-10-19T02:03:02.126Z,1.04
2022-10-19T02:04:02.269Z,1.04
2022-10-19T02:05:02.375Z,1.04
2022-10-19T02:06:02.535Z,1.04
2022-10-19T02:07:02.669Z,1.04
2022-10-19T02:08:02.819Z,1.04
2022-10-19T02:09:02.924Z,1.04
2022-10-19T02:10:03.109Z,1.04
2022-10-19T02:11:03.233Z,1.04
2022-10-19T02:12:03.373Z,1.04
2022-10-19T02:13:03.538Z,1.04
2022-10-19T02:14:03.700Z,1.04
2022-10-19T02:15:04.324Z,1.04
2022-10-19T02:16:03.994Z,1.04
2022-10-19T02:17:04.150Z,1.04
2022-10-19T02:18:04.306Z,1.04
2022-10-19T02:19:04.458Z,1.04
2022-10-19T02:20:04.721Z,1.04
2022-10-19T02:21:04.746Z,1.04
2022-10-19T02:22:04.908Z,1.04
2022-10-19T02:23:05.082Z,1.04
2022-10-19T02:24:05.245Z,1.04
2022-10-19T02:25:05.361Z,1.04
2022-10-19T02:26:05.508Z,1.04
2022-10-19T02:27:05.672Z,1.04
2022-10-19T02:28:05.820Z,1.04
2022-10-19T02:29:05.929Z,1.04
2022-10-19T02:30:06.552Z,1.04
2022-10-19T02:31:06.167Z,1.04
2022-10-19T02:32:06.321Z,1.04
2022-10-19T02:33:06.474Z,1.04
2022-10-19T02:34:06.634Z,1.04
2022-10-19T02:35:06.784Z,1.04
2022-10-19T02:36:06.937Z,1.04
2022-10-19T02:37:07.087Z,1.04
2022-10-19T02:38:07.192Z,1.04
2022-10-19T02:39:07.347Z,1.04
2022-10-19T02:40:07.501Z,1.04
2022-10-19T02:41:07.646Z,1.04
2022-10-19T02:42:07.790Z,1.04
2022-10-19T02:43:07.946Z,1.04
2022-10-19T02:44:08.097Z,1.04
2022-10-19T02:45:08.768Z,1.04
2022-10-19T02:46:08.390Z,1.04
2022-10-19T02:47:08.559Z,1.04
2022-10-19T02:48:08.723Z,1.04
2022-10-19T02:49:08.865Z,1.04
2022-10-19T02:50:09.011Z,1.04
2022-10-19T02:51:09.155Z,1.04
2022-10-19T02:52:09.326Z,1.04
2022-10-19T02:53:09.506Z,1.04
2022-10-19T02:54:09.609Z,1.04
2022-10-19T02:55:09.790Z,1.04
2022-10-19T02:56:09.902Z,1.04
2022-10-19T02:57:10.690Z,1.04
2022-10-19T02:58:10.140Z,1.04
2022-10-19T02:59:10.271Z,1.04
2022-10-19T03:00:10.913Z,1.04
2022-10-19T03:01:10.657Z,1.04
2022-10-19T03:02:10.735Z,1.04
2022-10-19T03:03:10.832Z,1.04
2022-10-19T03:04:10.979Z,1.04
2022-10-19T03:05:11.155Z,1.04
2022-10-19T03:06:11.290Z,1.04
2022-10-19T03:07:11.445Z,1.04
2022-10-19T03:08:11.587Z,1.04
2022-10-19T03:09:11.803Z,1.04
2022-10-19T03:10:11.896Z,1.04
2022-10-19T03:11:12.042Z,1.04
2022-10-19T03:12:12.204Z,1.04
2022-10-19T03:13:12.339Z,1.04
2022-10-19T03:14:12.509Z,1.04
2022-10-19T03:15:13.161Z,1.04
2022-10-19T03:16:12.808Z,1.04
2022-10-19T03:17:12.955Z,1.04
2022-10-19T03:18:13.105Z,1.04
2022-10-19T03:19:13.254Z,1.04
2022-10-19T03:20:13.397Z,1.04
2022-10-19T03:21:13.458Z,1.04
2022-10-19T03:22:13.610Z,1.04
2022-10-19T03:23:13.764Z,1.04
2022-10-19T03:24:13.919Z,1.04
2022-10-19T03:25:14.082Z,1.04
2022-10-19T03:26:14.179Z,1.04
2022-10-19T03:27:14.321Z,1.04
2022-10-19T03:28:14.475Z,1.04
2022-10-19T03:29:14.569Z,1.04
2022-10-19T03:30:15.299Z,1.04
2022-10-19T03:31:14.881Z,1.04
2022-10-19T03:32:15.046Z,1.04
2022-10-19T03:33:15.200Z,1.04
2022-10-19T03:34:15.283Z,1.04
2022-10-19T03:35:15.444Z,1.04
2022-10-19T03:36:15.543Z,1.04
2022-10-19T03:37:15.694Z,1.04
2022-10-19T03:38:15.843Z,1.04
2022-10-19T03:39:15.991Z,1.04
2022-10-19T03:40:16.145Z,1.04
2022-10-19T03:41:16.301Z,1.04
2022-10-19T03:42:16.451Z,1.04
2022-10-19T03:43:16.611Z,1.04
2022-10-19T03:44:16.757Z,1.04
2022-10-19T03:45:17.474Z,1.04
2022-10-19T03:46:17.004Z,1.04
2022-10-19T03:47:17.148Z,1.04
2022-10-19T03:48:17.285Z,1.04
2022-10-19T03:49:17.427Z,1.04
2022-10-19T03:50:17.564Z,1.04
2022-10-19T03:51:17.724Z,1.04
2022-10-19T03:52:17.868Z,1.04
2022-10-19T03:53:18.029Z,1.04
2022-10-19T03:54:18.176Z,1.04
2022-10-19T03:55:18.325Z,1.04
2022-10-19T03:56:18.471Z,1.04
2022-10-19T03:57:18.669Z,1.04
2022-10-19T03:58:18.795Z,1.04
2022-10-19T03:59:18.931Z,1.04
2022-10-19T04:00:19.712Z,1.04
2022-10-19T04:01:19.268Z,1.04
2022-10-19T04:02:19.358Z,1.04
2022-10-19T04:03:19.481Z,1.04
2022-10-19T04:04:19.649Z,1.04
2022-10-19T04:05:19.751Z,1.04
2022-10-19T04:06:21.354Z,1.04
2022-10-19T04:07:20.051Z,1.04
2022-10-19T04:08:20.194Z,1.04
2022-10-19T04:09:20.353Z,1.04
2022-10-19T04:10:20.450Z,1.04
2022-10-19T04:11:20.601Z,1.04
2022-10-19T04:12:20.746Z,1.04
2022-10-19T04:13:20.858Z,1.04
2022-10-19T04:14:26.601Z,1.04
2022-10-19T04:15:21.775Z,1.04
2022-10-19T04:16:21.306Z,1.04
2022-10-19T04:17:21.482Z,1.04
2022-10-19T04:18:21.612Z,1.04
2022-10-19T04:19:21.785Z,1.04
2022-10-19T04:20:21.874Z,1.04
2022-10-19T04:21:22.056Z,1.04
2022-10-19T04:22:22.186Z,1.04
2022-10-19T04:23:22.345Z,1.04
2022-10-19T04:24:22.478Z,1.04
2022-10-19T04:25:22.640Z,1.04
2022-10-19T04:26:22.775Z,1.04
2022-10-19T04:27:22.927Z,1.04
2022-10-19T04:28:23.079Z,1.04
2022-10-19T04:29:24.910Z,1.04
2022-10-19T04:30:23.401Z,1.04
2022-10-19T04:31:23.536Z,1.04
2022-10-19T04:32:23.634Z,1.04
2022-10-19T04:33:23.807Z,1.04
2022-10-19T04:34:23.933Z,1.04
2022-10-19T04:35:24.030Z,1.04
2022-10-19T04:36:24.204Z,1.04
2022-10-19T04:37:24.308Z,1.04
2022-10-19T04:38:24.469Z,1.04
2022-10-19T04:39:24.603Z,1.04
2022-10-19T04:40:24.758Z,1.04
2022-10-19T04:41:24.902Z,1.04
2022-10-19T04:42:25.054Z,1.04
2022-10-19T04:43:25.212Z,1.04
2022-10-19T04:44:25.378Z,1.04
2022-10-19T04:45:26.046Z,1.04
2022-10-19T04:46:25.657Z,1.04
2022-10-19T04:47:25.814Z,1.04
2022-10-19T04:48:25.974Z,1.04
2022-10-19T04:49:26.125Z,1.04
2022-10-19T04:50:26.278Z,1.04
2022-10-19T04:51:26.422Z,1.04
2022-10-19T04:52:26.621Z,1.04
2022-10-19T04:53:26.758Z,1.04
2022-10-19T04:54:26.834Z,1.04
2022-10-19T04:55:26.935Z,1.04
2022-10-19T04:56:27.082Z,1.04
2022-10-19T04:57:27.239Z,1.04
2022-10-19T04:58:27.387Z,1.04
2022-10-19T04:59:27.538Z,1.04
2022-10-19T05:00:28.264Z,2
2022-10-19T05:01:27.829Z,2
2022-10-19T05:02:28.000Z,2
2022-10-19T05:03:28.092Z,2
2022-10-19T05:04:28.251Z,3.04
2022-10-19T05:05:28.389Z,3.04
2022-10-19T05:06:28.563Z,4
2022-10-19T05:07:28.693Z,5.04
2022-10-19T05:08:28.755Z,5.04
2022-10-19T05:09:28.905Z,6
2022-10-19T05:10:29.077Z,7.04
2022-10-19T05:11:29.211Z,9.04
2022-10-19T05:12:29.331Z,11.04
2022-10-19T05:13:29.470Z,13.04
2022-10-19T05:14:29.579Z,15.04
2022-10-19T05:15:30.243Z,17.04
2022-10-19T05:16:29.855Z,21.04
2022-10-19T05:17:30.022Z,24
2022-10-19T05:18:30.173Z,29.04
2022-10-19T05:19:30.317Z,33.04
2022-10-19T05:20:30.476Z,39.04
2022-10-19T05:21:30.624Z,47.04
2022-10-19T05:22:30.798Z,59.04
2022-10-19T05:24:32.297Z,98
2022-10-19T05:25:31.227Z,109.04
2022-10-19T05:26:31.386Z,124
2022-10-19T05:27:31.804Z,136
2022-10-19T05:28:31.740Z,155.04
2022-10-19T05:29:31.842Z,167.04
2022-10-19T05:30:32.438Z,185.12
2022-10-19T05:31:32.083Z,210.08
2022-10-19T05:32:32.249Z,228
2022-10-19T05:33:32.337Z,246.08
2022-10-19T05:34:32.489Z,281.12
2022-10-19T05:35:32.644Z,307.04
2022-10-19T05:36:32.795Z,332.16
2022-10-19T05:37:33.278Z,358.08
2022-10-19T05:38:33.097Z,425.28
2022-10-19T05:39:33.260Z,482.24
2022-10-19T05:40:33.413Z,521.28
2022-10-19T05:41:33.560Z,546.24
2022-10-19T05:42:34.389Z,561.28
2022-10-19T05:43:33.862Z,578.24
2022-10-19T05:44:34.031Z,568
2022-10-19T05:45:34.634Z,554.24
2022-10-19T05:46:34.215Z,603.2
2022-10-19T05:47:34.480Z,688
2022-10-19T05:48:34.469Z,764.16
2022-10-19T05:49:34.622Z,798.08
2022-10-19T05:50:34.769Z,801.28
2022-10-19T05:51:34.917Z,803.2
2022-10-19T05:52:35.081Z,832
2022-10-19T05:53:35.397Z,873.6
2022-10-19T05:54:35.380Z,913.28
2022-10-19T05:55:35.537Z,971.52
2022-10-19T05:56:35.684Z,1043.2
2022-10-19T05:57:36.117Z,1065.6
2022-10-19T05:58:35.991Z,1030.4
2022-10-19T05:59:36.191Z,1079.04
2022-10-19T06:00:36.810Z,1207.04
2022-10-19T06:01:36.470Z,1364.48
2022-10-19T06:02:36.490Z,1532.16
2022-10-19T06:03:36.642Z,1555.2
2022-10-19T06:04:36.844Z,1611.52
2022-10-19T06:05:36.924Z,1652.48
2022-10-19T06:06:37.044Z,1699.84
2022-10-19T06:07:37.268Z,1760
2022-10-19T06:08:37.310Z,1822.72
2022-10-19T06:09:37.455Z,1959.68
2022-10-19T06:10:37.603Z,2286.08
2022-10-19T06:11:37.752Z,2489.6
2022-10-19T06:12:37.863Z,2432
2022-10-19T06:13:38.012Z,2353.92
2022-10-19T06:14:38.251Z,2406.4
2022-10-19T06:15:38.323Z,2575.36
2022-10-19T06:16:38.411Z,2680.32
2022-10-19T06:17:38.514Z,2780.16
2022-10-19T06:18:38.667Z,2849.28
2022-10-19T06:19:38.769Z,2787.84
2022-10-19T06:20:38.927Z,2680.32
2022-10-19T06:21:40.627Z,2647.04
2022-10-19T06:22:39.245Z,2682.88
2022-10-19T06:23:39.366Z,2754.56
2022-10-19T06:24:39.521Z,2752
2022-10-19T06:25:39.631Z,2836.48
2022-10-19T06:26:39.789Z,3008
2022-10-19T06:27:39.983Z,3059.2
2022-10-19T06:28:40.087Z,2920.96
2022-10-19T06:29:40.720Z,2787.84
2022-10-19T06:30:40.473Z,2864.64
2022-10-19T06:31:40.499Z,3018.24
2022-10-19T06:32:40.643Z,3171.84
2022-10-19T06:33:40.926Z,3317.76
2022-10-19T06:34:40.943Z,3479.04
2022-10-19T06:35:41.131Z,3668.48
2022-10-19T06:36:41.254Z,3893.76
2022-10-19T06:37:41.393Z,4052.48
2022-10-19T06:38:41.502Z,4075.52
2022-10-19T06:39:41.630Z,4131.84
2022-10-19T06:40:41.714Z,4116.48
2022-10-19T06:41:41.816Z,4029.44
2022-10-19T06:42:42.005Z,4106.24
2022-10-19T06:43:42.122Z,4385.28
2022-10-19T06:44:42.797Z,4595.2
2022-10-19T06:45:42.426Z,4587.52
2022-10-19T06:46:42.524Z,4738.56
2022-10-19T06:47:42.718Z,5089.28
2022-10-19T06:48:42.807Z,5416.96
2022-10-19T06:49:42.944Z,5447.68
2022-10-19T06:50:43.080Z,5155.84
2022-10-19T06:51:43.231Z,4986.88
2022-10-19T06:52:43.382Z,5012.48
2022-10-19T06:53:43.489Z,4976.64
2022-10-19T06:54:43.639Z,4956.16
2022-10-19T06:55:43.786Z,4984.32
2022-10-19T06:56:43.976Z,5025.28
2022-10-19T06:57:44.088Z,5063.68
2022-10-19T06:58:44.245Z,5127.68
2022-10-19T06:59:45.037Z,5422.08
2022-10-19T07:00:44.591Z,5888
2022-10-19T07:01:44.731Z,6056.96
2022-10-19T07:02:44.896Z,6082.56
2022-10-19T07:03:44.987Z,6087.68
2022-10-19T07:04:45.106Z,6138.88
2022-10-19T07:05:45.206Z,6256.64
2022-10-19T07:06:45.347Z,6364.16
2022-10-19T07:07:45.586Z,6584.32
2022-10-19T07:08:45.654Z,6737.92
2022-10-19T07:09:45.812Z,7009.28
2022-10-19T07:10:45.911Z,7260.16
2022-10-19T07:11:46.380Z,7705.6
2022-10-19T07:12:46.218Z,8048.64
2022-10-19T07:13:46.383Z,8535.04
2022-10-19T07:14:47.041Z,8678.399
2022-10-19T07:15:46.663Z,8806.399
2022-10-19T07:16:46.771Z,8990.72
2022-10-19T07:17:46.927Z,9431.04
2022-10-19T07:18:47.089Z,9881.6
2022-10-19T07:19:47.228Z,10414.08
2022-10-19T07:20:47.379Z,10577.92
2022-10-19T07:21:47.564Z,10608.64
2022-10-19T07:22:47.717Z,10926.08
2022-10-19T07:23:47.844Z,11335.68
2022-10-19T07:24:47.991Z,11560.96
2022-10-19T07:25:48.139Z,11735.04
2022-10-19T07:26:48.290Z,11663.359
2022-10-19T07:27:48.446Z,11960.319
2022-10-19T07:28:48.597Z,12236.8
2022-10-19T07:29:49.206Z,12062.72
2022-10-19T07:30:48.844Z,11581.439
2022-10-19T07:31:48.949Z,11939.84
2022-10-19T07:32:49.105Z,12503.04
2022-10-19T07:33:49.251Z,12257.279
2022-10-19T07:34:49.402Z,10936.319
2022-10-19T07:35:49.546Z,9676.8
2022-10-19T07:36:49.708Z,9584.64
2022-10-19T07:37:49.861Z,9973.76
2022-10-19T07:38:49.970Z,10158.08
2022-10-19T07:39:50.159Z,9999.359
2022-10-19T07:40:50.841Z,9763.84
2022-10-19T07:41:50.407Z,9251.84
2022-10-19T07:42:50.583Z,9067.52
2022-10-19T07:43:50.717Z,9446.399
2022-10-19T07:44:51.499Z,10014.72
2022-10-19T07:45:51.019Z,10168.319
2022-10-19T07:46:51.174Z,10035.2
2022-10-19T07:47:51.352Z,9605.12
2022-10-19T07:48:51.482Z,9303.04
2022-10-19T07:49:51.578Z,9221.12
2022-10-19T07:50:51.742Z,9154.56
2022-10-19T07:51:51.877Z,9543.68
2022-10-19T07:52:52.045Z,9932.8
2022-10-19T07:53:52.149Z,9799.68
2022-10-19T07:54:52.411Z,9774.08
2022-10-19T07:55:52.544Z,10127.359
2022-10-19T07:56:52.739Z,10368
2022-10-19T07:57:52.800Z,10598.399
2022-10-19T07:58:52.967Z,10516.479
2022-10-19T07:59:53.597Z,10711.04
2022-10-19T08:00:53.198Z,10967.04
2022-10-19T08:01:53.402Z,10936.319
2022-10-19T08:02:59.996Z,10854.399
2022-10-19T08:05:00.962Z,11130.88
2022-10-19T08:05:53.902Z,11755.52
2022-10-19T08:06:54.061Z,11735.04
2022-10-19T08:07:54.211Z,11212.8
2022-10-19T08:08:54.407Z,10956.8
2022-10-19T08:09:54.676Z,11079.68
2022-10-19T08:10:54.658Z,11386.88
2022-10-19T08:11:54.817Z,11560.96
2022-10-19T08:12:54.964Z,12113.92
2022-10-19T08:13:55.119Z,12451.84
2022-10-19T08:14:55.823Z,12349.439
2022-10-19T08:15:55.355Z,12226.56
2022-10-19T08:16:56.012Z,12318.72
2022-10-19T08:17:55.677Z,12492.8
2022-10-19T08:18:55.769Z,12738.56
2022-10-19T08:19:55.871Z,12748.8
2022-10-19T08:20:56.027Z,12687.359
2022-10-19T08:21:56.136Z,13465.6
2022-10-19T08:22:58.835Z,13854.72
2022-10-19T08:23:56.394Z,14008.319
2022-10-19T08:24:56.502Z,14540.8
2022-10-19T08:25:56.638Z,15206.399
2022-10-19T08:26:56.743Z,15493.12
2022-10-19T08:27:56.901Z,15708.159
2022-10-19T08:28:57.047Z,14970.88
2022-10-19T08:29:58.319Z,14346.239
2022-10-19T08:30:57.340Z,14049.279
2022-10-19T08:31:57.500Z,14213.12
2022-10-19T08:32:57.672Z,14868.479
2022-10-19T08:33:57.799Z,15872
2022-10-19T08:34:57.964Z,16486.4
2022-10-19T08:35:58.066Z,16660.48
2022-10-19T08:36:58.163Z,16291.84
2022-10-19T08:37:58.678Z,15861.76
2022-10-19T08:38:58.472Z,16261.12
2022-10-19T08:39:58.629Z,17336.32
2022-10-19T08:40:58.779Z,19036.16
2022-10-19T08:41:58.942Z,20664.32
2022-10-19T08:42:59.080Z,22282.24
2022-10-19T08:43:59.222Z,50708.48
2022-10-19T08:44:59.900Z,29306.88
2022-10-19T08:45:59.518Z,19517.44
2022-10-19T08:47:00.491Z,18442.24
2022-10-19T08:48:00.486Z,18933.76
2022-10-19T08:48:59.978Z,20244.48
2022-10-19T08:50:00.153Z,22016
2022-10-19T08:51:00.294Z,22978.56
2022-10-19T08:52:00.431Z,30412.8
2022-10-19T08:53:00.541Z,22896.64
2022-10-19T08:54:00.687Z,20736
2022-10-19T08:55:00.866Z,20510.72
2022-10-19T08:56:03.656Z,20807.68
2022-10-19T08:57:01.093Z,20510.72
2022-10-19T08:58:01.266Z,19947.52
2022-10-19T08:59:01.401Z,19845.12
2022-10-19T09:00:02.108Z,19773.44
2022-10-19T09:01:01.692Z,17377.28
2022-10-19T09:02:01.865Z,16435.2
2022-10-19T09:03:02.028Z,15155.199
2022-10-19T09:04:02.163Z,14458.88
2022-10-19T09:05:02.263Z,14735.359
2022-10-19T09:06:02.427Z,15800.319
2022-10-19T09:07:02.564Z,16384
2022-10-19T09:08:02.679Z,16404.48
2022-10-19T09:09:02.895Z,16435.2
2022-10-19T09:10:02.997Z,16670.72
2022-10-19T09:11:03.087Z,16537.6
2022-10-19T09:12:03.173Z,16179.199
2022-10-19T09:13:03.336Z,15810.56
2022-10-19T09:14:05.560Z,15718.399
2022-10-19T09:15:03.562Z,16291.84
2022-10-19T09:16:04.300Z,17428.48
2022-10-19T09:17:03.873Z,18278.4
2022-10-19T09:18:04.041Z,17745.92
2022-10-19T09:19:04.198Z,15605.76
2022-10-19T09:20:04.331Z,13250.56
2022-10-19T09:21:04.526Z,11376.64
2022-10-19T09:22:04.640Z,10229.76
2022-10-19T09:23:06.688Z,9825.279
2022-10-19T09:24:04.895Z,9932.8
2022-10-19T09:25:05.055Z,10147.84
2022-10-19T09:26:05.147Z,10255.359
2022-10-19T09:27:05.321Z,10526.72
2022-10-19T09:28:05.488Z,10782.72
2022-10-19T09:29:05.612Z,11130.88
2022-10-19T09:30:06.320Z,11438.08
2022-10-19T09:31:05.893Z,12124.16
2022-10-19T09:32:06.071Z,12482.56
2022-10-19T09:33:06.211Z,12666.88
2022-10-19T09:34:06.395Z,12881.92
2022-10-19T09:35:06.456Z,13946.88
2022-10-19T09:36:06.564Z,14663.68
2022-10-19T09:37:06.802Z,15237.12
2022-10-19T09:38:06.811Z,15759.359
2022-10-19T09:39:06.955Z,15984.64
2022-10-19T09:40:07.104Z,15964.159
2022-10-19T09:41:07.250Z,15667.199
2022-10-19T09:42:07.412Z,15257.6
2022-10-19T09:43:07.514Z,15063.04
2022-10-19T09:44:07.625Z,14602.239
2022-10-19T09:45:07.762Z,14100.479
2022-10-19T09:46:16.591Z,13895.68
2022-10-19T09:47:09.112Z,13742.08
2022-10-19T09:48:12.135Z,13619.199
2022-10-19T09:49:08.308Z,13230.08
2022-10-19T09:50:08.439Z,12513.279
2022-10-19T09:51:08.539Z,11386.88
2022-10-19T09:52:08.691Z,11304.96
2022-10-19T09:53:08.842Z,11581.439
2022-10-19T09:54:08.995Z,12001.279
2022-10-19T09:55:09.721Z,12523.52
2022-10-19T09:56:09.288Z,14233.6
2022-10-19T09:57:09.443Z,16373.76
2022-10-19T09:58:09.607Z,17530.88
2022-10-19T09:59:09.753Z,17633.28
2022-10-19T10:00:10.432Z,17274.88
2022-10-19T10:01:10.001Z,16988.16
2022-10-19T10:02:10.176Z,17152
2022-10-19T10:03:10.328Z,17172.48
2022-10-19T10:04:10.467Z,17745.92
2022-10-19T10:05:10.654Z,18995.2
2022-10-19T10:06:10.781Z,25886.72
2022-10-19T10:07:10.874Z,18862.08
2022-10-19T10:08:11.033Z,18268.16
2022-10-19T10:09:11.199Z,17070.08
2022-10-19T10:10:11.281Z,15247.359
2022-10-19T10:11:11.413Z,14192.64
2022-10-19T10:12:11.513Z,13793.279
2022-10-19T10:13:11.700Z,14202.88
2022-10-19T10:14:11.831Z,14571.52
2022-10-19T10:15:12.665Z,14807.04
2022-10-19T10:16:12.129Z,14929.92
2022-10-19T10:17:12.288Z,14929.92
2022-10-19T10:18:12.445Z,14940.159
2022-10-19T10:19:12.556Z,15104
2022-10-19T10:22:12.948Z,16035.84
2022-10-19T10:23:13.069Z,16332.8
2022-10-19T10:24:13.222Z,16783.36
2022-10-19T10:25:13.361Z,17367.04
2022-10-19T10:26:13.505Z,17960.96
2022-10-19T10:27:13.665Z,18606.08
2022-10-19T10:28:13.799Z,20377.6
2022-10-19T10:29:13.952Z,20776.96
2022-10-19T10:30:14.595Z,20797.44
2022-10-19T10:31:14.155Z,21155.84
2022-10-19T10:32:14.258Z,21237.76
2022-10-19T10:33:26.809Z,21196.8
2022-10-19T10:34:22.548Z,21934.08
2022-10-19T10:35:14.668Z,21975.04
2022-10-19T10:36:14.844Z,22794.24
2022-10-19T10:37:14.970Z,21934.08
2022-10-19T10:38:15.138Z,22118.4
2022-10-19T10:39:15.284Z,20234.24
2022-10-19T10:40:17.093Z,19240.96
2022-10-19T10:41:15.588Z,18493.44
2022-10-19T10:42:15.726Z,18370.56
2022-10-19T10:43:15.872Z,17940.48
2022-10-19T10:44:16.029Z,17530.88
2022-10-19T10:45:16.560Z,16967.68
2022-10-19T10:46:16.327Z,16435.2
2022-10-19T10:47:16.476Z,15964.159
2022-10-19T10:48:16.582Z,15462.399
2022-10-19T10:49:16.704Z,14796.8
2022-10-19T10:50:16.811Z,13916.16
2022-10-19T10:51:16.936Z,12861.439
2022-10-19T10:52:17.084Z,12431.359
2022-10-19T10:53:17.241Z,12298.239
2022-10-19T10:54:17.345Z,12503.04
2022-10-19T10:55:17.491Z,13076.479
2022-10-19T10:56:17.596Z,13629.439
2022-10-19T10:57:17.804Z,14274.56
2022-10-19T10:58:17.923Z,14643.199
2022-10-19T10:59:18.059Z,14837.76
2022-10-19T11:00:18.715Z,15226.88
2022-10-19T11:01:18.387Z,15759.359
2022-10-19T11:02:18.497Z,16117.76
2022-10-19T11:03:18.564Z,16435.2
2022-10-19T11:04:18.721Z,17059.84
2022-10-19T11:05:18.859Z,17766.4
2022-10-19T11:06:19.065Z,18810.88
2022-10-19T11:07:19.121Z,19384.32
2022-10-19T11:08:19.279Z,19343.36
2022-10-19T11:09:19.430Z,18882.56
2022-10-19T11:10:19.575Z,18237.44
2022-10-19T11:11:19.745Z,17582.08
2022-10-19T11:12:19.887Z,17377.28
2022-10-19T11:13:20.034Z,17571.84
2022-10-19T11:14:20.140Z,18124.8
2022-10-19T11:15:20.913Z,19210.24
2022-10-19T11:16:20.390Z,23285.76
2022-10-19T11:17:20.559Z,19640.32
2022-10-19T11:18:20.744Z,19517.44
2022-10-19T11:19:20.850Z,17776.64
2022-10-19T11:20:20.992Z,17049.6
2022-10-19T11:21:21.176Z,16312.319
2022-10-19T11:22:23.566Z,16015.359
2022-10-19T11:23:21.501Z,15800.319
2022-10-19T11:24:21.646Z,15472.64
2022-10-19T11:25:21.757Z,14970.88
2022-10-19T11:26:21.900Z,14213.12
2022-10-19T11:27:22.074Z,13783.04
2022-10-19T11:28:22.203Z,13527.04
2022-10-19T11:29:22.320Z,13475.84
2022-10-19T11:30:23.052Z,13547.52
2022-10-19T11:31:22.603Z,13813.76
2022-10-19T11:32:22.765Z,14346.239
2022-10-19T11:33:22.918Z,14950.399
2022-10-19T11:34:23.767Z,15339.52
2022-10-19T11:35:23.267Z,15564.8
2022-10-19T11:36:23.373Z,15636.479
2022-10-19T11:37:23.530Z,15902.72
2022-10-19T11:38:27.532Z,16261.12
2022-10-19T11:39:23.772Z,16640
2022-10-19T11:40:23.926Z,17264.64
2022-10-19T11:41:24.081Z,18073.6
2022-10-19T11:42:24.232Z,18268.16
2022-10-19T11:43:26.283Z,18104.32
2022-10-19T11:44:24.515Z,17981.44
2022-10-19T11:45:24.628Z,18094.08
2022-10-19T11:46:24.776Z,17694.72
2022-10-19T11:47:24.936Z,17776.64
2022-10-19T11:48:25.102Z,17070.08
2022-10-19T11:49:25.234Z,15656.96
2022-10-19T11:50:26.081Z,15073.279
2022-10-19T11:51:25.548Z,14254.08
2022-10-19T11:52:25.784Z,13496.319
2022-10-19T11:53:26.452Z,12820.479
2022-10-19T11:54:25.964Z,12503.04
2022-10-19T11:55:26.102Z,12759.04
2022-10-19T11:56:34.988Z,13568
2022-10-19T11:57:26.411Z,14305.279
2022-10-19T11:58:28.954Z,15165.439
2022-10-19T11:59:26.712Z,15779.84
2022-10-19T12:00:38.497Z,16302.08
2022-10-19T12:01:27.012Z,16445.44
2022-10-19T12:02:27.221Z,16261.12
2022-10-19T12:03:27.222Z,15831.04
2022-10-19T12:04:27.379Z,15308.8
2022-10-19T12:05:27.534Z,14520.319
2022-10-19T12:06:27.619Z,13742.08
2022-10-19T12:07:27.779Z,12666.88
2022-10-19T12:08:27.986Z,11468.8
2022-10-19T12:09:28.093Z,10813.439
2022-10-19T12:10:28.237Z,10327.04
2022-10-19T12:11:28.381Z,10158.08
2022-10-19T12:12:28.534Z,10224.64
2022-10-19T12:13:28.682Z,10470.399
2022-10-19T12:14:28.838Z,10772.479
2022-10-19T12:15:29.514Z,10997.76
2022-10-19T12:16:29.086Z,11233.279
2022-10-19T12:17:29.195Z,11294.72
2022-10-19T12:18:29.345Z,11274.24
2022-10-19T12:19:29.512Z,11202.56
2022-10-19T12:20:29.645Z,11079.68
2022-10-19T12:21:29.802Z,10813.439
2022-10-19T12:22:29.956Z,10639.359
2022-10-19T12:23:30.104Z,10567.68
2022-10-19T12:24:30.207Z,10577.92
2022-10-19T12:25:30.316Z,10618.88
2022-10-19T12:26:30.455Z,10649.6
2022-10-19T12:27:30.611Z,10588.16
2022-10-19T12:28:30.731Z,10547.2
2022-10-19T12:29:30.885Z,10496
2022-10-19T12:30:31.521Z,10465.279
2022-10-19T12:31:31.158Z,10403.84
2022-10-19T12:32:31.321Z,10378.24
2022-10-19T12:33:31.484Z,10460.16
2022-10-19T12:34:31.674Z,10577.92
2022-10-19T12:35:31.714Z,10680.319
2022-10-19T12:36:31.878Z,10731.52
2022-10-19T12:37:32.144Z,10792.96
2022-10-19T12:38:32.137Z,10946.56